Time;durP1;ratioP1;P1;durP2;ratioP2;P2;SDS_P1;SDS_P2;PMS_P1;PMS_P2;Temp;Humidity;BMP_temperature;BMP_pressure;BME280_temperature;BME280_humidity;BME280_pressure;Samples;Min_cycle;Max_cycle;Signal;HPM_P1;HPM_P2
2022/08/08 00:00:53;;;;;;;10.57;6.67;;;14.50;99.90;;;;;;5074850;28;20604;-59
2022/08/08 00:03:47;;;;;;;7.10;6.40;;;14.50;99.90;;;;;;5054659;28;20576;-58
2022/08/08 00:06:58;;;;;;;12.77;7.30;;;14.40;99.90;;;;;;5054500;28;20250;-59
2022/08/08 00:09:52;;;;;;;10.27;7.63;;;14.40;99.90;;;;;;5054424;28;20862;-58
2022/08/08 00:12:47;;;;;;;9.17;7.10;;;14.30;99.90;;;;;;5054870;28;20216;-59
2022/08/08 00:15:28;;;;;;;9.50;6.97;;;14.20;99.90;;;;;;5074339;28;20214;-58
2022/08/08 00:18:54;;;;;;;8.03;6.73;;;14.20;99.90;;;;;;5061268;28;20210;-58
2022/08/08 00:21:49;;;;;;;8.40;7.23;;;14.20;99.90;;;;;;5074276;28;20200;-59
2022/08/08 00:24:59;;;;;;;8.83;7.07;;;14.10;99.90;;;;;;5074127;28;20215;-58
2022/08/08 00:27:30;;;;;;;8.87;7.10;;;14.10;99.90;;;;;;5074392;28;20208;-58
2022/08/08 00:30:41;;;;;;;13.40;7.73;;;14.10;99.90;;;;;;5088753;28;20248;-58
2022/08/08 00:33:35;;;;;;;9.50;8.27;;;14.10;99.90;;;;;;5068159;28;20218;-58
2022/08/08 00:36:30;;;;;;;13.47;8.20;;;14.10;99.90;;;;;;5074707;28;20204;-57
2022/08/08 00:39:10;;;;;;;12.10;8.17;;;14.00;99.90;;;;;;5074400;28;20206;-58
2022/08/08 00:42:39;;;;;;;11.23;8.97;;;14.00;99.90;;;;;;5061335;28;20194;-57
2022/08/08 00:45:39;;;;;;;13.67;8.83;;;14.00;99.90;;;;;;5073351;28;20211;-58
2022/08/08 00:49:06;;;;;;;11.97;10.00;;;14.00;99.90;;;;;;5062510;28;20275;-57
2022/08/08 00:52:07;;;;;;;13.13;9.53;;;14.00;99.90;;;;;;5073617;28;20279;-58
2022/08/08 00:55:27;;;;;;;15.60;9.57;;;14.00;99.90;;;;;;5073813;28;20222;-59
2022/08/08 00:58:56;;;;;;;16.07;10.00;;;14.00;99.90;;;;;;5072341;28;20299;-57
2022/08/08 01:01:33;;;;;;;13.77;10.00;;;14.00;99.90;;;;;;5080323;28;20191;-58
2022/08/08 01:04:45;;;;;;;17.90;10.90;;;14.00;99.90;;;;;;5061424;28;20235;-57
2022/08/08 01:08:04;;;;;;;11.80;9.33;;;13.90;99.90;;;;;;5071806;28;20226;-58
2022/08/08 01:11:13;;;;;;;14.00;8.60;;;13.80;99.90;;;;;;5073651;28;20253;-58
2022/08/08 01:14:24;;;;;;;11.27;8.33;;;13.70;99.90;;;;;;5070365;28;20275;-58
2022/08/08 01:17:37;;;;;;;12.23;9.33;;;13.60;99.90;;;;;;5071699;28;20273;-57
2022/08/08 01:20:53;;;;;;;11.60;10.13;;;13.50;99.90;;;;;;5066298;28;20220;-58
2022/08/08 01:23:53;;;;;;;13.20;10.23;;;13.50;99.90;;;;;;5070635;28;20192;-58
2022/08/08 01:27:03;;;;;;;18.13;11.10;;;13.40;99.90;;;;;;5054765;28;20739;-57
2022/08/08 01:34:03;;;;;;;13.67;10.67;;;13.40;99.90;;;;;;5053027;28;20180;-57
2022/08/08 01:37:09;;;;;;;14.90;10.93;;;13.30;99.90;;;;;;5063747;28;20200;-58
2022/08/08 01:40:11;;;;;;;13.70;10.80;;;13.30;99.90;;;;;;5079722;28;20260;-57
2022/08/08 01:42:50;;;;;;;16.50;10.80;;;13.30;99.90;;;;;;5079417;28;20731;-58
2022/08/08 01:45:48;;;;;;;19.17;11.70;;;13.20;99.90;;;;;;5072307;28;20302;-58
2022/08/08 01:48:37;;;;;;;13.93;10.90;;;13.30;99.90;;;;;;5051973;28;20189;-58
2022/08/08 01:51:47;;;;;;;19.83;10.73;;;13.20;99.90;;;;;;5060300;28;20187;-59
2022/08/08 01:58:44;;;;;;;17.07;11.07;;;13.10;99.90;;;;;;5051860;28;20200;-58
2022/08/08 02:01:24;;;;;;;14.30;10.83;;;13.00;99.90;;;;;;5066619;28;20224;-58
2022/08/08 02:04:05;;;;;;;20.27;10.67;;;13.00;99.90;;;;;;5051915;28;20247;-58
2022/08/08 02:10:40;;;;;;;21.57;11.13;;;12.90;99.90;;;;;;5069328;28;20184;-58
2022/08/08 02:13:42;;;;;;;20.97;10.53;;;12.80;99.90;;;;;;5052307;28;20203;-58
2022/08/08 02:17:05;;;;;;;19.47;10.80;;;12.90;99.90;;;;;;5073071;28;20257;-58
2022/08/08 02:19:49;;;;;;;19.70;10.50;;;12.80;99.90;;;;;;5056837;28;20265;-58
2022/08/08 02:26:15;;;;;;;23.03;15.97;;;12.90;99.90;;;;;;5064396;28;20302;-57
2022/08/08 02:29:00;;;;;;;24.87;15.20;;;12.90;99.90;;;;;;5071879;28;20203;-59
2022/08/08 02:31:56;;;;;;;20.90;14.10;;;12.90;99.90;;;;;;5071450;28;20639;-57
2022/08/08 02:35:03;;;;;;;21.50;13.60;;;12.90;99.90;;;;;;5065419;28;20219;-58
2022/08/08 02:38:19;;;;;;;20.53;13.23;;;12.80;99.90;;;;;;5052960;28;20659;-58
2022/08/08 02:41:45;;;;;;;18.70;12.73;;;12.80;99.90;;;;;;5056956;28;20180;-58
2022/08/08 02:45:07;;;;;;;20.67;13.10;;;12.70;99.90;;;;;;5051596;28;20220;-58
2022/08/08 02:48:27;;;;;;;19.93;13.47;;;12.70;99.90;;;;;;5046138;28;20644;-58
2022/08/08 02:51:39;;;;;;;22.87;13.17;;;12.60;99.90;;;;;;5067468;28;20736;-58
2022/08/08 02:54:44;;;;;;;18.97;13.40;;;12.60;99.90;;;;;;5071956;28;20651;-57
2022/08/08 02:58:00;;;;;;;22.97;13.30;;;12.60;99.90;;;;;;5071573;28;20206;-58
2022/08/08 03:01:02;;;;;;;20.37;13.80;;;12.60;99.90;;;;;;5071267;28;20246;-58
2022/08/08 03:04:14;;;;;;;21.23;14.53;;;12.60;99.90;;;;;;5085747;28;20192;-59
2022/08/08 03:07:47;;;;;;;25.43;17.03;;;12.60;99.90;;;;;;5051217;28;20181;-58
2022/08/08 03:11:03;;;;;;;25.93;18.03;;;12.70;99.90;;;;;;5044838;28;20266;-58
2022/08/08 03:13:46;;;;;;;26.57;17.77;;;12.70;99.90;;;;;;5071498;28;20183;-58
2022/08/08 03:16:57;;;;;;;28.20;18.30;;;12.70;99.90;;;;;;5072119;28;20695;-58
2022/08/08 03:20:04;;;;;;;27.43;17.77;;;12.80;99.90;;;;;;5071052;28;20524;-58
2022/08/08 03:22:56;;;;;;;24.23;16.77;;;12.80;99.90;;;;;;5071556;28;20195;-59
2022/08/08 03:25:53;;;;;;;27.23;18.73;;;12.70;99.90;;;;;;5081640;28;20203;-58
2022/08/08 03:28:32;;;;;;;30.73;19.40;;;12.80;99.90;;;;;;5064944;28;20197;-58
2022/08/08 03:33:16;;;;;;;34.23;21.23;;;12.80;99.90;;;;;;5090443;28;20278;-58
2022/08/08 03:33:52;;;;;;;33.80;20.63;;;12.80;99.90;;;;;;5061683;28;20226;-58
2022/08/08 03:36:31;;;;;;;29.10;19.10;;;12.90;99.90;;;;;;5055032;28;20658;-58
2022/08/08 03:39:07;;;;;;;27.20;19.07;;;12.80;99.90;;;;;;5074054;28;20235;-58
2022/08/08 03:41:48;;;;;;;28.70;17.67;;;12.80;99.90;;;;;;5070137;28;20183;-57
2022/08/08 03:44:36;;;;;;;26.27;16.87;;;12.70;99.90;;;;;;5074475;28;20192;-58
2022/08/08 03:47:06;;;;;;;28.00;17.33;;;12.60;99.90;;;;;;5072839;28;20236;-58
2022/08/08 03:49:48;;;;;;;23.30;16.80;;;12.60;99.90;;;;;;5060843;28;20218;-58
2022/08/08 03:52:29;;;;;;;29.90;18.17;;;12.50;99.90;;;;;;5074593;28;20191;-58
2022/08/08 03:55:36;;;;;;;29.20;18.87;;;12.50;99.90;;;;;;5072557;28;20601;-58
2022/08/08 03:58:26;;;;;;;32.13;20.27;;;12.50;99.90;;;;;;5071710;28;20199;-58
2022/08/08 04:05:51;;;;;;;36.07;20.37;;;12.60;99.90;;;;;;5060021;28;20309;-58
2022/08/08 04:08:23;;;;;;;28.73;19.43;;;12.60;99.90;;;;;;5064644;28;20188;-58
2022/08/08 04:11:03;;;;;;;31.97;19.27;;;12.60;99.90;;;;;;5073087;28;20195;-58
2022/08/08 04:13:44;;;;;;;29.23;18.13;;;12.50;99.90;;;;;;5084101;28;20203;-57
2022/08/08 04:16:54;;;;;;;31.57;19.40;;;12.50;99.90;;;;;;5074078;28;20204;-58
2022/08/08 04:19:55;;;;;;;27.70;18.20;;;12.40;99.90;;;;;;5089490;28;20202;-58
2022/08/08 04:22:44;;;;;;;31.63;18.80;;;12.40;99.90;;;;;;5070691;28;20195;-58
2022/08/08 04:25:18;;;;;;;39.03;21.63;;;12.40;99.90;;;;;;5073963;28;20215;-58
2022/08/08 04:27:48;;;;;;;34.63;21.03;;;12.40;99.90;;;;;;5074273;28;20203;-57
2022/08/08 04:31:05;;;;;;;34.70;21.40;;;12.40;99.90;;;;;;5072637;28;20200;-57
2022/08/08 04:33:57;;;;;;;36.57;20.50;;;12.40;99.90;;;;;;5073206;28;20239;-58
2022/08/08 04:36:29;;;;;;;37.83;22.63;;;12.40;99.90;;;;;;5076209;28;20270;-58
2022/08/08 04:38:59;;;;;;;37.20;22.30;;;12.40;99.90;;;;;;5075388;28;20196;-57
2022/08/08 04:41:48;;;;;;;32.87;20.70;;;12.50;99.90;;;;;;5066364;28;20200;-58
2022/08/08 04:44:18;;;;;;;34.07;21.83;;;12.40;99.90;;;;;;5064110;28;20196;-58
2022/08/08 04:46:55;;;;;;;35.43;21.77;;;12.40;99.90;;;;;;5077457;28;20235;-58
2022/08/08 04:50:04;;;;;;;35.03;21.43;;;12.40;99.90;;;;;;5092753;28;20772;-58
2022/08/08 04:52:37;;;;;;;31.37;20.90;;;12.40;99.90;;;;;;5052795;28;20193;-59
2022/08/08 04:55:27;;;;;;;35.43;21.20;;;12.50;99.90;;;;;;5068301;28;20283;-59
2022/08/08 04:58:06;;;;;;;33.70;20.43;;;12.50;99.90;;;;;;5063123;28;20207;-58
2022/08/08 05:00:40;;;;;;;33.17;20.93;;;12.60;99.90;;;;;;5073462;28;20187;-58
2022/08/08 05:03:13;;;;;;;32.50;20.53;;;12.60;99.90;;;;;;5085219;28;20597;-58
2022/08/08 05:06:04;;;;;;;30.97;20.07;;;12.70;99.90;;;;;;5083117;28;20219;-58
2022/08/08 05:08:46;;;;;;;32.77;20.83;;;12.70;99.90;;;;;;5069634;28;20223;-58
2022/08/08 05:11:41;;;;;;;34.40;21.13;;;12.70;99.90;;;;;;5069099;28;20271;-58
2022/08/08 05:14:15;;;;;;;36.37;20.33;;;12.80;99.90;;;;;;5072388;28;20846;-58
2022/08/08 05:16:48;;;;;;;32.63;20.43;;;12.90;99.90;;;;;;5070134;28;20212;-58
2022/08/08 05:19:36;;;;;;;32.97;19.30;;;13.00;99.90;;;;;;5102893;28;20203;-58
2022/08/08 05:22:27;;;;;;;27.77;19.17;;;13.10;99.90;;;;;;5054669;28;20656;-58
2022/08/08 05:24:57;;;;;;;32.27;20.90;;;13.20;99.90;;;;;;5053915;28;20192;-58
2022/08/08 05:27:26;;;;;;;38.43;22.87;;;13.40;99.90;;;;;;5092276;28;20307;-59
2022/08/08 05:30:03;;;;;;;33.63;21.83;;;13.60;99.90;;;;;;5067660;28;20195;-58
2022/08/08 05:32:32;;;;;;;38.90;22.40;;;13.80;99.90;;;;;;5070479;28;20278;-58
2022/08/08 05:35:08;;;;;;;36.57;24.43;;;14.00;99.90;;;;;;5070389;28;20227;-59
2022/08/08 05:37:47;;;;;;;29.53;20.67;;;14.20;99.90;;;;;;5068983;28;20194;-58
2022/08/08 05:40:21;;;;;;;36.77;23.90;;;14.40;99.90;;;;;;5063987;28;20262;-58
2022/08/08 05:43:16;;;;;;;35.93;23.30;;;14.50;99.90;;;;;;5072549;28;20211;-58
2022/08/08 05:46:06;;;;;;;29.37;20.30;;;14.70;99.90;;;;;;5071536;28;20231;-59
2022/08/08 05:48:41;;;;;;;32.70;21.23;;;14.90;99.90;;;;;;5071361;28;20655;-58
2022/08/08 05:51:11;;;;;;;30.73;21.93;;;15.00;99.90;;;;;;5078008;28;20213;-58
2022/08/08 05:53:45;;;;;;;32.43;22.50;;;15.10;99.90;;;;;;5078829;28;20196;-58
2022/08/08 05:56:38;;;;;;;33.57;21.00;;;15.20;99.90;;;;;;5077753;28;20188;-59
2022/08/08 05:59:16;;;;;;;30.50;20.30;;;15.50;99.90;;;;;;5056181;28;20318;-58
2022/08/08 06:03:09;;;;;;;29.97;19.07;;;15.60;99.90;;;;;;5068043;28;20192;-58
2022/08/08 06:05:14;;;;;;;29.53;18.03;;;15.80;99.90;;;;;;5065333;28;20263;-58
2022/08/08 06:08:05;;;;;;;24.57;17.97;;;15.90;99.90;;;;;;5069560;28;20199;-58
2022/08/08 06:10:54;;;;;;;26.00;17.93;;;16.10;99.90;;;;;;5062031;28;20660;-58
2022/08/08 06:13:24;;;;;;;25.30;18.00;;;16.20;99.90;;;;;;5085874;28;20273;-59
2022/08/08 06:16:01;;;;;;;23.40;16.93;;;16.40;99.90;;;;;;5071960;28;20218;-58
2022/08/08 06:18:32;;;;;;;28.37;18.43;;;16.50;99.90;;;;;;5074821;28;20204;-59
2022/08/08 06:21:02;;;;;;;26.70;16.87;;;16.70;99.90;;;;;;5064113;28;20196;-59
2022/08/08 06:23:51;;;;;;;22.23;15.90;;;16.90;99.90;;;;;;5066578;28;20200;-59
2022/08/08 06:26:44;;;;;;;26.20;16.43;;;17.10;99.90;;;;;;5058903;28;20218;-58
2022/08/08 06:29:29;;;;;;;23.27;16.83;;;17.30;99.90;;;;;;5072334;28;20258;-59
2022/08/08 06:32:25;;;;;;;21.80;15.80;;;17.50;99.90;;;;;;5082273;28;20206;-58
2022/08/08 06:35:14;;;;;;;22.07;15.43;;;17.60;99.90;;;;;;5067604;28;20535;-58
2022/08/08 06:38:06;;;;;;;24.83;15.57;;;17.70;99.90;;;;;;5050611;28;20186;-59
2022/08/08 06:40:44;;;;;;;19.03;14.27;;;17.80;99.90;;;;;;5085176;28;20192;-58
2022/08/08 06:43:28;;;;;;;20.50;13.73;;;17.90;99.90;;;;;;5056572;28;20196;-58
2022/08/08 06:46:02;;;;;;;19.30;13.83;;;18.10;99.90;;;;;;5065725;28;20567;-58
2022/08/08 06:48:30;;;;;;;19.53;13.23;;;18.30;99.90;;;;;;5065063;28;20584;-58
2022/08/08 06:51:03;;;;;;;18.77;13.33;;;18.60;99.90;;;;;;5069627;28;20283;-59
2022/08/08 06:53:39;;;;;;;18.00;12.53;;;18.70;99.90;;;;;;5067269;28;20254;-58
2022/08/08 06:57:00;;;;;;;15.73;12.37;;;18.80;99.90;;;;;;5059348;28;20279;-58
2022/08/08 06:59:33;;;;;;;23.07;12.93;;;19.10;99.90;;;;;;5070001;28;20228;-58
2022/08/08 07:02:24;;;;;;;15.33;11.77;;;19.10;99.90;;;;;;5059442;28;20231;-58
2022/08/08 07:05:03;;;;;;;18.53;13.03;;;19.10;99.90;;;;;;5070169;28;20203;-58
2022/08/08 07:07:42;;;;;;;17.73;12.67;;;19.10;99.90;;;;;;5065278;28;20219;-58
2022/08/08 07:10:11;;;;;;;15.00;11.13;;;19.40;99.90;;;;;;5074920;28;20204;-58
2022/08/08 07:13:02;;;;;;;16.20;12.23;;;19.70;99.90;;;;;;5076861;28;20332;-59
2022/08/08 07:15:38;;;;;;;20.23;11.53;;;19.90;99.90;;;;;;5074683;28;20630;-59
2022/08/08 07:18:37;;;;;;;22.00;11.20;;;20.20;99.90;;;;;;5079973;28;20191;-58
2022/08/08 07:21:13;;;;;;;15.00;10.10;;;20.70;99.90;;;;;;5087759;28;20200;-58
2022/08/08 07:24:07;;;;;;;15.03;9.97;;;20.80;99.90;;;;;;5073577;28;20203;-58
2022/08/08 07:26:39;;;;;;;17.10;9.60;;;20.90;99.90;;;;;;5072795;28;20220;-58
2022/08/08 07:29:08;;;;;;;12.83;8.73;;;21.00;99.90;;;;;;5072724;28;20261;-58
2022/08/08 07:31:58;;;;;;;14.73;9.30;;;21.20;99.90;;;;;;5071556;28;20196;-58
2022/08/08 07:34:30;;;;;;;13.00;9.17;;;21.40;99.90;;;;;;5074113;28;20200;-58
2022/08/08 07:37:03;;;;;;;15.90;8.70;;;21.50;99.90;;;;;;5064714;28;20210;-59
2022/08/08 07:39:42;;;;;;;16.07;7.93;;;21.60;99.90;;;;;;5067812;28;20193;-59
2022/08/08 07:42:50;;;;;;;8.90;6.93;;;21.70;99.90;;;;;;5059449;28;20199;-59
2022/08/08 07:45:37;;;;;;;8.80;6.77;;;21.80;99.90;;;;;;5056741;28;20280;-58
2022/08/08 07:48:26;;;;;;;6.10;5.50;;;22.10;99.90;;;;;;5063650;28;20578;-59
2022/08/08 07:51:18;;;;;;;9.40;6.33;;;22.30;99.90;;;;;;5072277;28;20303;-58
2022/08/08 07:54:20;;;;;;;8.53;6.20;;;22.40;99.90;;;;;;5072036;28;20227;-58
2022/08/08 07:57:02;;;;;;;9.77;5.50;;;22.40;99.90;;;;;;5080003;28;20193;-58
2022/08/08 07:59:47;;;;;;;6.70;5.40;;;22.60;99.90;;;;;;5059476;28;20201;-58
2022/08/08 08:02:23;;;;;;;7.40;5.80;;;22.80;99.90;;;;;;5065097;28;20231;-58
2022/08/08 08:05:20;;;;;;;8.83;5.67;;;23.00;99.90;;;;;;5063518;28;20199;-59
2022/08/08 08:08:05;;;;;;;8.33;5.07;;;23.10;99.90;;;;;;5063346;28;20711;-58
2022/08/08 08:10:37;;;;;;;7.07;4.80;;;23.20;99.90;;;;;;5073341;28;20701;-59
2022/08/08 08:13:20;;;;;;;6.47;4.37;;;23.30;99.90;;;;;;5070236;28;20286;-59
2022/08/08 08:16:11;;;;;;;7.50;4.53;;;23.30;99.90;;;;;;5073142;28;20224;-58
2022/08/08 08:18:47;;;;;;;13.33;4.70;;;23.40;99.90;;;;;;5078137;28;20180;-58
2022/08/08 08:21:28;;;;;;;5.17;4.30;;;23.40;99.90;;;;;;5073367;28;20253;-59
2022/08/08 08:24:16;;;;;;;4.70;4.30;;;23.50;99.90;;;;;;5074406;28;20210;-59
2022/08/08 08:26:47;;;;;;;4.13;3.73;;;23.60;99.90;;;;;;5072107;28;20197;-59
2022/08/08 08:29:22;;;;;;;5.37;3.83;;;23.80;99.90;;;;;;5073327;28;20188;-58
2022/08/08 08:31:56;;;;;;;4.43;4.03;;;24.20;99.90;;;;;;5072789;28;20201;-58
2022/08/08 08:34:35;;;;;;;6.10;4.40;;;24.20;99.90;;;;;;5071891;28;20191;-59
2022/08/08 08:37:13;;;;;;;7.00;3.90;;;24.20;99.90;;;;;;5070950;28;20276;-59
2022/08/08 08:39:42;;;;;;;5.77;3.67;;;24.60;99.90;;;;;;5061934;28;20396;-59
2022/08/08 08:42:48;;;;;;;7.33;3.40;;;24.60;99.90;;;;;;5052955;28;20196;-58
2022/08/08 08:45:19;;;;;;;6.23;3.90;;;24.60;99.90;;;;;;5062120;28;20652;-59
2022/08/08 08:47:52;;;;;;;4.43;3.70;;;24.40;99.90;;;;;;5071871;28;20204;-59
2022/08/08 08:50:23;;;;;;;6.73;3.70;;;24.40;99.90;;;;;;5068570;28;20228;-59
2022/08/08 08:53:42;;;;;;;5.30;3.88;;;24.50;99.90;;;;;;5068590;28;20200;-59
2022/08/08 08:56:29;;;;;;;4.43;3.30;;;24.80;99.90;;;;;;5067376;28;20210;-59
2022/08/08 08:59:19;;;;;;;8.25;3.60;;;25.10;99.90;;;;;;5073934;28;20193;-59
2022/08/08 09:02:18;;;;;;;5.25;3.70;;;25.30;99.90;;;;;;5073052;28;20182;-59
2022/08/08 09:04:48;;;;;;;5.63;2.88;;;25.60;99.90;;;;;;5072627;28;20224;-59
2022/08/08 09:07:23;;;;;;;5.22;3.25;;;25.70;99.90;;;;;;5072659;28;20224;-59
2022/08/08 09:10:15;;;;;;;2.75;2.50;;;25.90;99.90;;;;;;5071757;28;20213;-59
2022/08/08 09:13:16;;;;;;;2.33;2.20;;;26.00;99.90;;;;;;5072222;28;20207;-59
2022/08/08 09:15:50;;;;;;;2.50;2.40;;;26.10;99.90;;;;;;5071768;28;20219;-60
2022/08/08 09:18:33;;;;;;;2.80;2.40;;;26.40;99.90;;;;;;5063144;28;20605;-59
2022/08/08 09:21:38;;;;;;;2.33;2.10;;;26.50;99.90;;;;;;5071974;28;20663;-59
2022/08/08 09:24:28;;;;;;;4.68;2.22;;;26.80;99.90;;;;;;5071872;28;20200;-59
2022/08/08 09:27:16;;;;;;;2.88;2.50;;;27.10;99.90;;;;;;5060527;28;20261;-59
2022/08/08 09:30:01;;;;;;;2.00;1.90;;;27.20;99.90;;;;;;5083801;28;20193;-59
2022/08/08 09:32:36;;;;;;;3.28;2.00;;;27.20;99.90;;;;;;5068112;28;20253;-59
2022/08/08 09:35:08;;;;;;;2.00;1.67;;;27.40;99.90;;;;;;5068566;28;20199;-59
2022/08/08 09:37:45;;;;;;;2.78;1.70;;;27.50;99.90;;;;;;5064650;28;20211;-60
2022/08/08 09:40:33;;;;;;;6.57;1.83;;;28.10;99.90;;;;;;5062573;28;20203;-68
2022/08/08 09:43:19;;;;;;;2.13;2.03;;;28.10;99.90;;;;;;5066315;28;20201;-63
2022/08/08 09:46:11;;;;;;;2.33;2.05;;;28.60;99.90;;;;;;5057726;28;20765;-63
2022/08/08 09:48:54;;;;;;;2.22;1.67;;;28.30;99.90;;;;;;5098843;28;20233;-63
2022/08/08 09:51:31;;;;;;;2.00;1.85;;;28.70;99.90;;;;;;5059944;28;20242;-63
2022/08/08 09:54:25;;;;;;;2.35;1.45;;;28.70;99.90;;;;;;5068815;28;20246;-63
2022/08/08 09:57:08;;;;;;;3.13;1.70;;;28.50;99.90;;;;;;5066512;28;20199;-63
2022/08/08 09:59:45;;;;;;;1.90;1.80;;;28.60;99.90;;;;;;5065119;28;20195;-63
2022/08/08 10:02:36;;;;;;;2.90;1.40;;;28.70;99.90;;;;;;5065350;28;20212;-62
2022/08/08 10:05:12;;;;;;;1.52;1.42;;;28.80;99.90;;;;;;5081553;28;20203;-64
2022/08/08 10:07:58;;;;;;;2.38;1.63;;;29.00;99.90;;;;;;5062877;28;20667;-63
2022/08/08 10:10:30;;;;;;;2.80;1.60;;;29.30;99.90;;;;;;5092487;28;20203;-63
2022/08/08 10:13:15;;;;;;;1.67;1.58;;;29.30;99.90;;;;;;5062340;28;20202;-62
2022/08/08 10:15:46;;;;;;;1.55;1.40;;;29.60;99.90;;;;;;5064175;28;20721;-63
2022/08/08 10:18:32;;;;;;;3.85;1.83;;;29.90;99.90;;;;;;5066728;28;20198;-62
2022/08/08 10:21:04;;;;;;;2.05;1.52;;;29.80;99.90;;;;;;5055268;28;20800;-69
2022/08/08 10:23:53;;;;;;;2.30;1.50;;;29.80;99.90;;;;;;5058821;28;20198;-65
2022/08/08 10:26:31;;;;;;;1.67;1.58;;;30.00;99.90;;;;;;5058695;28;20274;-63
2022/08/08 10:29:33;;;;;;;2.65;1.50;;;30.10;99.90;;;;;;5062953;28;20228;-62
2022/08/08 10:32:34;;;;;;;1.50;1.40;;;30.50;99.90;;;;;;5065348;28;20190;-62
2022/08/08 10:35:13;;;;;;;2.80;1.50;;;30.50;99.90;;;;;;5067564;28;20209;-62
2022/08/08 10:38:04;;;;;;;1.52;1.42;;;30.40;99.40;;;;;;5063480;28;20211;-62
2022/08/08 10:40:33;;;;;;;2.80;1.60;;;30.20;99.60;;;;;;5060295;28;20205;-62
2022/08/08 10:43:04;;;;;;;2.75;1.50;;;30.50;99.90;;;;;;5066148;28;20730;-62
2022/08/08 10:45:42;;;;;;;2.75;1.63;;;30.70;99.10;;;;;;5064991;28;20553;-62
2022/08/08 10:48:36;;;;;;;2.53;1.48;;;31.10;99.90;;;;;;5067616;28;20268;-62
2022/08/08 10:51:36;;;;;;;2.03;1.48;;;31.50;99.30;;;;;;5058818;28;20629;-62
2022/08/08 10:54:23;;;;;;;2.58;1.70;;;31.90;99.60;;;;;;5055058;28;20201;-62
2022/08/08 10:56:58;;;;;;;2.22;2.03;;;31.90;98.40;;;;;;5067923;28;20198;-62
2022/08/08 10:59:27;;;;;;;3.30;1.70;;;30.90;98.90;;;;;;5065325;28;20195;-62
2022/08/08 11:01:59;;;;;;;2.25;1.50;;;30.00;98.40;;;;;;5057945;28;20249;-61
2022/08/08 11:04:31;;;;;;;4.43;1.90;;;29.50;99.70;;;;;;5066202;28;20192;-62
2022/08/08 11:07:09;;;;;;;6.15;1.70;;;29.60;99.90;;;;;;5059579;28;20272;-61
2022/08/08 11:10:01;;;;;;;6.13;1.85;;;29.20;99.90;;;;;;5064189;28;20265;-61
2022/08/08 11:12:34;;;;;;;2.13;1.50;;;28.80;99.90;;;;;;5064928;28;20203;-61
2022/08/08 11:15:07;;;;;;;4.82;2.42;;;29.00;99.90;;;;;;5058262;28;20196;-61
2022/08/08 11:17:38;;;;;;;2.38;2.13;;;29.40;99.30;;;;;;5065719;28;20241;-61
2022/08/08 11:20:28;;;;;;;4.30;1.83;;;29.30;99.90;;;;;;5070186;28;20180;-61
2022/08/08 11:23:00;;;;;;;3.45;2.08;;;29.00;99.90;;;;;;5064840;28;20568;-61
2022/08/08 11:25:35;;;;;;;2.13;2.03;;;28.60;99.90;;;;;;5069160;28;20201;-61
2022/08/08 11:28:24;;;;;;;1.80;1.70;;;28.20;99.90;;;;;;5067404;28;20216;-61
2022/08/08 11:31:01;;;;;;;2.70;2.00;;;28.40;99.90;;;;;;5066729;28;20232;-61
2022/08/08 11:33:34;;;;;;;1.95;1.85;;;28.20;99.90;;;;;;5063636;28;20679;-61
2022/08/08 11:36:22;;;;;;;4.57;2.22;;;27.80;99.90;;;;;;5067366;28;20201;-60
2022/08/08 11:38:58;;;;;;;6.43;2.30;;;28.00;99.90;;;;;;5058154;28;20195;-61
2022/08/08 11:41:29;;;;;;;2.10;2.00;;;28.60;99.90;;;;;;5099660;28;20223;-61
2022/08/08 11:44:01;;;;;;;3.70;1.80;;;29.10;99.90;;;;;;5073407;28;20251;-61
2022/08/08 11:46:33;;;;;;;3.75;2.35;;;29.60;99.90;;;;;;5067155;28;20284;-61
2022/08/08 11:49:07;;;;;;;6.03;2.20;;;29.80;99.90;;;;;;5062042;28;20230;-61
2022/08/08 11:51:38;;;;;;;2.40;2.20;;;29.20;99.90;;;;;;5070247;28;20205;-61
2022/08/08 11:54:30;;;;;;;2.05;1.85;;;28.60;99.90;;;;;;5062747;28;20217;-61
2022/08/08 11:57:12;;;;;;;4.95;1.95;;;28.30;99.90;;;;;;5068618;28;20218;-61
2022/08/08 11:59:46;;;;;;;2.95;2.10;;;27.90;99.90;;;;;;5073197;28;20279;-61
2022/08/08 12:02:31;;;;;;;3.80;2.05;;;27.90;99.90;;;;;;5067227;28;20199;-61
2022/08/08 12:05:03;;;;;;;4.18;2.10;;;28.30;99.90;;;;;;5068813;28;20674;-61
2022/08/08 12:07:45;;;;;;;4.78;2.08;;;28.60;99.90;;;;;;5064361;28;20201;-61
2022/08/08 12:10:21;;;;;;;2.05;1.75;;;28.00;99.90;;;;;;5074147;28;20350;-61
2022/08/08 12:12:59;;;;;;;1.97;1.70;;;27.30;99.90;;;;;;5060255;28;20200;-61
2022/08/08 12:15:30;;;;;;;7.00;2.17;;;27.40;99.90;;;;;;5058882;28;20580;-61
2022/08/08 12:18:18;;;;;;;4.20;1.83;;;28.00;99.90;;;;;;5064554;28;20199;-61
2022/08/08 12:20:50;;;;;;;4.90;2.30;;;28.10;99.90;;;;;;5065153;28;20633;-61
2022/08/08 12:23:32;;;;;;;1.45;1.40;;;28.40;99.90;;;;;;5068727;28;20254;-61
2022/08/08 12:26:36;;;;;;;2.65;1.88;;;28.80;99.90;;;;;;5070083;28;20193;-61
2022/08/08 12:29:25;;;;;;;4.13;2.03;;;28.40;99.90;;;;;;5071231;28;20216;-61
2022/08/08 12:32:11;;;;;;;4.60;2.00;;;28.20;99.90;;;;;;5066712;28;20250;-61
2022/08/08 12:34:50;;;;;;;3.33;2.10;;;27.40;99.90;;;;;;5065863;28;20219;-61
2022/08/08 12:37:28;;;;;;;2.33;2.13;;;27.60;99.90;;;;;;5068094;28;20210;-61
2022/08/08 12:40:17;;;;;;;4.93;1.87;;;27.60;99.90;;;;;;5062008;28;20220;-61
2022/08/08 12:42:54;;;;;;;2.57;1.80;;;27.80;99.90;;;;;;5069240;28;20226;-61
2022/08/08 12:45:33;;;;;;;4.80;2.10;;;27.70;99.90;;;;;;5069543;28;20269;-60
2022/08/08 12:48:23;;;;;;;2.50;2.30;;;27.40;99.90;;;;;;5065150;28;20205;-60
2022/08/08 12:51:07;;;;;;;2.00;1.90;;;27.70;99.90;;;;;;5067830;28;20212;-61
2022/08/08 12:53:54;;;;;;;2.17;1.97;;;27.70;99.90;;;;;;5064077;28;20225;-61
2022/08/08 12:56:37;;;;;;;3.57;2.40;;;27.70;99.90;;;;;;5066397;28;20192;-61
2022/08/08 12:59:18;;;;;;;2.70;2.00;;;27.00;99.90;;;;;;5058797;28;20254;-61
2022/08/08 13:01:56;;;;;;;3.73;2.20;;;27.10;99.90;;;;;;5062737;28;20203;-61
2022/08/08 13:04:28;;;;;;;4.17;2.10;;;26.90;99.90;;;;;;5059758;28;20209;-61
2022/08/08 13:07:00;;;;;;;2.80;2.07;;;26.30;99.90;;;;;;5064804;28;20250;-61
2022/08/08 13:09:38;;;;;;;2.90;2.03;;;25.80;99.90;;;;;;5091285;28;20204;-61
2022/08/08 13:12:29;;;;;;;4.00;2.13;;;26.00;99.90;;;;;;5066316;28;20202;-61
2022/08/08 13:15:02;;;;;;;6.13;1.90;;;26.20;99.90;;;;;;5061146;28;20752;-61
2022/08/08 13:17:32;;;;;;;2.83;1.77;;;26.20;99.90;;;;;;5067643;28;20932;-61
2022/08/08 13:20:22;;;;;;;2.40;2.10;;;26.20;99.90;;;;;;5069091;28;20200;-61
2022/08/08 13:22:56;;;;;;;4.20;1.90;;;26.30;99.90;;;;;;5062311;28;20207;-61
2022/08/08 13:25:47;;;;;;;1.83;1.73;;;26.40;99.90;;;;;;5057755;28;20196;-61
2022/08/08 13:29:03;;;;;;;1.97;1.57;;;26.80;99.90;;;;;;5067470;28;20664;-61
2022/08/08 13:31:34;;;;;;;2.43;1.60;;;26.80;99.90;;;;;;5061122;28;20280;-61
2022/08/08 13:34:04;;;;;;;2.67;1.60;;;26.80;99.90;;;;;;5060495;28;20192;-61
2022/08/08 13:36:41;;;;;;;1.93;1.80;;;27.20;99.90;;;;;;5070732;28;20666;-61
2022/08/08 13:39:14;;;;;;;3.77;1.60;;;27.70;99.90;;;;;;5066582;28;20196;-61
2022/08/08 13:41:45;;;;;;;6.83;1.60;;;27.90;99.90;;;;;;5063726;28;20204;-61
2022/08/08 13:44:40;;;;;;;2.10;2.00;;;27.90;99.90;;;;;;5059086;28;20203;-61
2022/08/08 13:47:17;;;;;;;2.20;2.00;;;27.80;99.90;;;;;;5060704;28;20236;-61
2022/08/08 13:49:56;;;;;;;3.53;1.90;;;27.80;99.90;;;;;;5069226;28;20224;-61
2022/08/08 13:52:47;;;;;;;2.90;1.80;;;27.70;99.90;;;;;;5063314;28;20196;-61
2022/08/08 13:55:18;;;;;;;7.77;2.20;;;27.60;99.90;;;;;;5064694;28;20234;-61
2022/08/08 13:58:04;;;;;;;2.03;1.80;;;27.60;99.90;;;;;;5067684;28;20868;-61
2022/08/08 14:00:44;;;;;;;2.30;1.80;;;27.70;99.90;;;;;;5062855;28;20645;-61
2022/08/08 14:03:24;;;;;;;3.30;2.10;;;27.30;99.90;;;;;;5070821;28;20267;-61
2022/08/08 14:06:13;;;;;;;2.17;1.97;;;27.10;99.90;;;;;;5061082;28;20186;-61
2022/08/08 14:09:02;;;;;;;2.00;1.87;;;26.90;99.90;;;;;;5069979;28;20204;-61
2022/08/08 14:11:52;;;;;;;3.10;2.00;;;27.10;99.90;;;;;;5067304;28;20322;-61
2022/08/08 14:14:37;;;;;;;4.03;2.33;;;27.70;99.90;;;;;;5067727;28;20223;-61
2022/08/08 14:17:08;;;;;;;2.17;2.00;;;28.10;99.90;;;;;;5066183;28;20273;-61
2022/08/08 14:19:51;;;;;;;2.27;2.10;;;28.20;99.90;;;;;;5081692;28;20195;-61
2022/08/08 14:22:28;;;;;;;2.23;2.03;;;28.50;99.90;;;;;;5064195;28;20189;-61
2022/08/08 14:24:59;;;;;;;1.60;1.57;;;28.80;99.90;;;;;;5058537;28;20611;-61
2022/08/08 14:27:30;;;;;;;3.10;1.90;;;29.00;99.90;;;;;;5064555;28;20205;-61
2022/08/08 14:30:04;;;;;;;4.37;1.67;;;29.20;99.90;;;;;;5066340;28;20651;-61
2022/08/08 14:32:47;;;;;;;2.33;1.70;;;29.30;99.90;;;;;;5063806;28;20682;-61
2022/08/08 14:35:25;;;;;;;2.75;1.80;;;29.50;99.90;;;;;;5061344;28;20202;-61